createdAt,value
2018-01-17T00:13:01.625Z,5.40
2018-01-17T00:21:51.117Z,5.50
2018-01-17T00:30:14.475Z,5.50
2018-01-17T00:32:42.444Z,5.50
2018-01-17T00:35:10.156Z,5.50
2018-01-17T00:37:38.073Z,5.40
2018-01-17T00:40:05.896Z,5.50
2018-01-17T00:42:34.479Z,5.40
2018-01-17T00:45:03.017Z,5.40
2018-01-17T00:47:30.804Z,5.40
2018-01-17T00:49:59.400Z,5.50
2018-01-17T00:52:27.177Z,5.50
2018-01-17T00:54:55.795Z,5.40
2018-01-17T00:57:23.783Z,5.30
2018-01-17T00:59:51.536Z,5.40
2018-01-17T01:02:19.256Z,5.30
2018-01-17T01:04:46.971Z,5.40
2018-01-17T01:07:14.728Z,5.40
2018-01-17T01:09:42.447Z,5.40
2018-01-17T01:12:11.530Z,5.30
2018-01-17T01:14:39.368Z,5.30
2018-01-17T01:17:08.402Z,5.20
2018-01-17T01:19:37.282Z,5.20
2018-01-17T08:44:16.308Z,2.10
2018-01-17T08:46:44.069Z,2.30
2018-01-17T08:49:11.783Z,2.50
2018-01-17T08:51:39.831Z,2.80
2018-01-17T08:54:07.568Z,3.10
2018-01-17T08:56:35.294Z,3.30
2018-01-17T08:59:03.103Z,3.60
2018-01-17T09:01:30.807Z,3.80
2018-01-17T09:03:58.852Z,4.10
2018-01-17T09:06:26.589Z,4.10
2018-01-17T09:08:54.308Z,4.00
2018-01-17T09:11:22.060Z,4.00
2018-01-17T09:13:49.835Z,3.80
2018-01-17T09:16:17.601Z,3.70
2018-01-17T09:18:45.412Z,3.80
2018-01-17T09:21:13.184Z,3.90
2018-01-17T09:23:40.983Z,4.20
2018-01-17T09:26:09.463Z,4.70
2018-01-17T09:28:38.173Z,4.60
2018-01-17T09:31:06.090Z,5.00
2018-01-17T09:33:35.087Z,5.60
2018-01-17T09:36:03.295Z,5.60
2018-01-17T09:38:32.084Z,5.40
2018-01-17T09:41:01.847Z,5.40
2018-01-17T09:43:29.699Z,5.50
2018-01-17T09:45:57.418Z,5.70
2018-01-17T09:48:25.140Z,5.70
2018-01-17T09:50:53.680Z,5.50
2018-01-17T09:53:21.478Z,5.50
2018-01-17T09:55:52.853Z,5.10
2018-01-17T09:58:20.598Z,5.00
2018-01-17T10:00:49.595Z,4.90
2018-01-17T10:03:18.080Z,5.00
2018-01-17T10:05:47.021Z,5.00
2018-01-17T10:08:14.786Z,4.90
2018-01-17T10:10:42.606Z,5.00
2018-01-17T10:13:10.528Z,4.80
2018-01-17T10:15:38.232Z,4.80
2018-01-17T10:18:06.756Z,5.20
2018-01-17T10:20:34.576Z,5.20
2018-01-17T10:23:02.448Z,5.40
2018-01-17T10:25:30.928Z,5.80
2018-01-17T10:27:59.459Z,5.80
2018-01-17T10:30:27.215Z,5.70
2018-01-17T10:32:54.929Z,5.90
2018-01-17T10:35:23.516Z,5.60
2018-01-17T10:37:51.988Z,5.30
2018-01-17T10:40:20.167Z,5.20
2018-01-17T10:42:48.633Z,5.20
2018-01-17T10:45:16.474Z,5.20
2018-01-17T10:47:44.226Z,5.30
2018-01-17T10:50:12.052Z,5.50
2018-01-17T10:52:40.586Z,5.80
2018-01-17T10:55:08.477Z,5.80
2018-01-17T10:57:36.264Z,5.90
2018-01-17T11:00:04.854Z,6.50
2018-01-17T11:02:33.440Z,6.40
2018-01-17T11:05:01.254Z,6.80
2018-01-17T11:07:29.853Z,7.40
2018-01-17T11:09:58.712Z,7.40
2018-01-17T11:12:27.198Z,7.40
2018-01-17T11:14:54.935Z,7.40
2018-01-17T11:17:23.559Z,7.90
2018-01-17T11:19:51.401Z,7.90
2018-01-17T11:22:19.109Z,7.90
2018-01-17T11:24:48.752Z,8.10
2018-01-17T11:27:17.041Z,8.10
2018-01-17T11:29:45.735Z,8.10
2018-01-17T11:32:14.077Z,7.70
2018-01-17T11:34:42.576Z,7.00
2018-01-17T11:37:10.576Z,7.00
2018-01-17T11:39:38.322Z,7.00
2018-01-17T11:42:06.173Z,7.00
2018-01-17T11:44:40.518Z,7.00
2018-01-17T11:47:08.450Z,6.90
2018-01-17T11:49:37.994Z,6.70
2018-01-17T11:52:05.801Z,6.70
2018-01-17T11:54:34.508Z,6.60
2018-01-17T11:57:02.315Z,6.60
2018-01-17T11:59:30.011Z,6.50
2018-01-17T12:01:58.629Z,6.10
2018-01-17T12:04:26.368Z,6.10
2018-01-17T12:06:54.121Z,6.10
2018-01-17T12:09:24.485Z,5.90
2018-01-17T12:11:52.321Z,5.90
2018-01-17T12:14:21.001Z,6.30
2018-01-17T12:16:48.914Z,6.20
2018-01-17T12:19:22.544Z,6.70
2018-01-17T12:24:31.336Z,7.00
2018-01-17T12:26:59.241Z,7.00
2018-01-17T12:29:26.984Z,7.10
2018-01-17T12:31:54.698Z,6.90
2018-01-17T12:34:22.552Z,6.60
2018-01-17T12:36:50.395Z,6.70
2018-01-17T12:39:18.228Z,6.70
2018-01-17T12:41:46.021Z,6.70
2018-01-17T12:44:13.973Z,6.60
2018-01-17T12:46:41.697Z,6.60
2018-01-17T12:49:09.408Z,6.50
2018-01-17T12:51:37.320Z,6.30
2018-01-17T12:54:08.812Z,6.20
2018-01-17T12:56:40.479Z,6.00
2018-01-17T12:59:08.233Z,5.70
2018-01-17T13:01:36.035Z,5.60
2018-01-17T13:04:03.866Z,5.40
2018-01-17T13:06:31.615Z,5.50
2018-01-17T13:09:00.378Z,5.60
2018-01-17T13:11:28.963Z,5.80
2018-01-17T13:13:56.715Z,5.80
2018-01-17T13:16:24.529Z,5.60
2018-01-17T13:18:52.255Z,5.60
2018-01-17T13:21:20.463Z,5.80
2018-01-17T13:23:49.011Z,5.70
2018-01-17T13:26:16.822Z,5.70
2018-01-17T13:28:44.594Z,5.70
2018-01-17T13:31:12.396Z,5.70
2018-01-17T13:33:41.503Z,5.70
2018-01-17T13:36:10.183Z,5.80
2018-01-17T13:38:37.957Z,5.70
2018-01-17T13:41:06.880Z,5.70
2018-01-17T13:43:35.650Z,5.70
2018-01-17T13:46:03.733Z,5.80
2018-01-17T13:48:31.711Z,5.90
2018-01-17T13:51:08.160Z,5.90
2018-01-17T13:53:40.147Z,5.80
2018-01-17T13:56:37.414Z,5.70
2018-01-17T13:59:33.270Z,5.70
2018-01-17T14:02:01.843Z,5.70
2018-01-17T14:04:29.780Z,5.70
2018-01-17T14:06:57.764Z,5.80
2018-01-17T14:09:30.793Z,5.80
2018-01-17T14:11:58.880Z,5.70
2018-01-17T14:17:10.733Z,5.70
2018-01-17T14:19:38.460Z,5.80
2018-01-17T14:22:06.216Z,5.80
2018-01-17T14:24:34.999Z,5.90
2018-01-17T14:27:08.426Z,5.80
2018-01-17T14:29:50.593Z,5.90
2018-01-17T14:32:19.355Z,6.00
2018-01-17T14:34:47.160Z,5.90
2018-01-17T14:37:15.427Z,5.90
2018-01-17T14:39:43.295Z,5.90
2018-01-17T14:42:11.778Z,5.50
2018-01-17T14:44:40.408Z,5.60
2018-01-17T14:47:08.123Z,5.50
2018-01-17T14:49:37.011Z,5.60
2018-01-17T14:52:05.524Z,5.60
2018-01-17T14:54:33.308Z,5.50
2018-01-17T14:57:01.166Z,5.60
2018-01-17T14:59:28.893Z,5.60
2018-01-17T15:01:57.440Z,5.40
2018-01-17T15:04:25.216Z,5.30
2018-01-17T15:06:57.886Z,5.50
2018-01-17T15:09:25.867Z,5.50
2018-01-17T15:11:53.605Z,5.60
2018-01-17T15:14:21.389Z,5.60
2018-01-17T15:16:49.198Z,5.60
2018-01-17T15:19:17.041Z,5.60
2018-01-17T15:21:45.600Z,5.60
2018-01-17T15:24:13.473Z,5.60
2018-01-17T15:26:41.293Z,5.50
2018-01-17T15:29:09.088Z,5.50
2018-01-17T15:31:39.730Z,5.60
2018-01-17T15:34:07.579Z,5.50
2018-01-17T15:36:35.393Z,5.50
2018-01-17T15:39:04.080Z,5.40
2018-01-17T15:41:33.452Z,5.30
2018-01-17T15:44:01.243Z,5.30
2018-01-17T15:46:29.948Z,5.20
2018-01-17T15:48:57.897Z,5.10
2018-01-17T15:51:26.498Z,5.00
2018-01-17T15:53:54.346Z,5.00
2018-01-17T15:56:23.090Z,5.00
2018-01-17T15:58:51.032Z,4.90
2018-01-17T16:01:19.589Z,5.00
2018-01-17T16:03:47.621Z,5.00
2018-01-17T16:06:15.388Z,4.80
2018-01-17T16:08:43.168Z,4.80
2018-01-17T16:11:11.724Z,4.80
2018-01-17T16:13:40.908Z,4.80
2018-01-17T16:16:09.155Z,4.90
2018-01-17T16:18:36.886Z,4.90
2018-01-17T16:21:05.711Z,4.90
2018-01-17T16:23:34.015Z,4.80
2018-01-17T16:26:02.478Z,5.00
2018-01-17T16:28:30.683Z,5.00
2018-01-17T16:30:58.401Z,5.00
2018-01-17T16:33:26.185Z,4.90
2018-01-17T16:35:53.918Z,5.00
2018-01-17T16:38:22.601Z,5.10
2018-01-17T16:40:51.083Z,5.20
2018-01-17T16:43:20.025Z,5.20
2018-01-17T16:45:47.933Z,5.10
2018-01-17T16:48:16.453Z,5.20
2018-01-17T16:50:44.973Z,5.10
2018-01-17T16:53:12.959Z,5.20
2018-01-17T16:55:41.452Z,5.20
2018-01-17T16:58:10.020Z,5.30
2018-01-17T17:00:38.529Z,5.20
2018-01-17T17:03:06.341Z,5.20
2018-01-17T17:05:34.144Z,5.20
2018-01-17T17:08:02.794Z,5.20
2018-01-17T17:10:30.542Z,5.10
2018-01-17T17:12:59.737Z,5.20
2018-01-17T17:15:27.511Z,5.20
2018-01-17T17:17:55.446Z,5.10
2018-01-17T17:20:24.242Z,5.10
2018-01-17T17:22:51.982Z,5.00
2018-01-17T17:25:20.501Z,5.00
2018-01-17T17:27:48.281Z,4.90
2018-01-17T17:30:17.114Z,4.90
2018-01-17T17:32:45.702Z,4.70
2018-01-17T17:35:13.518Z,4.70
2018-01-17T17:37:41.477Z,4.60
2018-01-17T17:40:09.280Z,4.60
2018-01-17T17:42:37.815Z,4.60
2018-01-17T17:45:05.884Z,4.50
2018-01-17T17:47:34.375Z,4.50
2018-01-17T17:50:02.097Z,4.40
2018-01-17T17:52:31.065Z,4.30
2018-01-17T17:54:59.624Z,4.30
